createdAt,value
2018-05-13T05:26:39.689Z,16.08
2018-05-13T05:29:08.269Z,16.25
2018-05-13T05:31:36.832Z,16.42
2018-05-13T05:34:05.400Z,16.65
2018-05-13T05:36:33.955Z,16.78
2018-05-13T05:39:02.644Z,16.77
2018-05-13T05:41:31.253Z,16.73
2018-05-13T05:43:59.814Z,16.67
2018-05-13T05:46:28.421Z,16.62
2018-05-13T05:48:57.044Z,16.55
2018-05-13T05:51:25.620Z,16.41
2018-05-13T05:53:54.260Z,16.42
2018-05-13T05:56:22.856Z,16.42
2018-05-13T05:58:51.429Z,16.24
2018-05-13T06:01:19.994Z,16.18
2018-05-13T06:03:48.564Z,16.28
2018-05-13T06:06:17.210Z,16.34
2018-05-13T06:08:45.776Z,16.52
2018-05-13T06:11:14.347Z,16.76
2018-05-13T06:13:42.913Z,16.96
2018-05-13T06:16:11.508Z,16.92
2018-05-13T06:18:40.113Z,17.01
2018-05-13T06:21:08.715Z,17.12
2018-05-13T06:23:37.267Z,17.15
2018-05-13T06:26:05.871Z,17.11
2018-05-13T06:28:34.507Z,17.30
2018-05-13T06:31:03.152Z,17.29
2018-05-13T06:33:31.809Z,17.36
2018-05-13T06:36:00.371Z,17.43
2018-05-13T06:38:29.010Z,17.56
2018-05-13T06:40:57.651Z,17.66
2018-05-13T06:43:26.273Z,17.55
2018-05-13T06:45:54.839Z,17.63
2018-05-13T06:48:24.207Z,17.61
2018-05-13T06:50:52.952Z,17.63
2018-05-13T06:53:21.618Z,17.69
2018-05-13T06:55:50.182Z,17.73
2018-05-13T06:58:18.750Z,17.77
2018-05-13T07:00:47.364Z,17.73
2018-05-13T07:03:15.994Z,17.71
2018-05-13T07:05:44.565Z,17.91
2018-05-13T07:08:13.135Z,17.99
2018-05-13T07:10:41.704Z,17.79
2018-05-13T07:13:10.465Z,17.81
2018-05-13T07:15:39.027Z,17.74
2018-05-13T07:18:07.628Z,17.70
2018-05-13T07:20:36.174Z,17.68
2018-05-13T07:23:04.803Z,17.74
2018-05-13T07:25:33.370Z,17.72
2018-05-13T07:28:01.936Z,17.77
2018-05-13T07:30:30.544Z,17.71
2018-05-13T07:32:59.105Z,17.77
2018-05-13T07:35:27.669Z,17.79
2018-05-13T07:37:56.245Z,17.86
2018-05-13T07:40:24.830Z,17.85
2018-05-13T07:42:53.499Z,17.81
2018-05-13T07:45:22.065Z,17.67
2018-05-13T07:47:50.623Z,17.82
2018-05-13T07:50:19.188Z,18.00
2018-05-13T07:52:47.777Z,18.11
2018-05-13T07:55:16.355Z,18.10
2018-05-13T07:57:44.928Z,18.13
2018-05-13T08:00:13.554Z,18.09
2018-05-13T08:02:41.771Z,18.16
2018-05-13T08:05:10.343Z,18.38
2018-05-13T08:07:38.971Z,18.53
2018-05-13T08:10:07.535Z,18.56
2018-05-13T08:12:36.124Z,18.64
2018-05-13T08:15:04.030Z,18.74
2018-05-13T08:17:32.602Z,18.81
2018-05-13T08:20:01.189Z,18.73
2018-05-13T08:22:29.773Z,18.85
2018-05-13T08:24:58.372Z,18.91
2018-05-13T08:27:26.606Z,18.95
2018-05-13T08:29:55.173Z,19.01
2018-05-13T08:32:23.757Z,19.17
2018-05-13T08:34:52.387Z,19.29
2018-05-13T08:37:20.975Z,19.40
2018-05-13T08:39:49.539Z,19.50
2018-05-13T08:42:18.094Z,19.55
2018-05-13T08:44:46.691Z,19.54
2018-05-13T08:47:15.284Z,19.69
2018-05-13T08:49:43.859Z,19.72
2018-05-13T08:52:12.446Z,19.72
2018-05-13T08:54:41.026Z,19.69
2018-05-13T08:57:09.649Z,19.85
2018-05-13T08:59:38.231Z,19.80
2018-05-13T09:02:06.808Z,19.87
2018-05-13T09:04:35.413Z,20.05
2018-05-13T09:07:03.991Z,20.15
2018-05-13T09:09:32.610Z,20.40
2018-05-13T09:12:01.196Z,20.80
2018-05-13T09:14:29.840Z,21.03
2018-05-13T09:16:58.564Z,21.26
2018-05-13T09:19:27.128Z,21.24
2018-05-13T09:21:55.689Z,21.33
2018-05-13T09:24:24.957Z,21.23
2018-05-13T09:26:53.533Z,20.60
2018-05-13T09:29:22.118Z,20.76
2018-05-13T09:31:50.737Z,20.80
2018-05-13T09:34:19.290Z,20.74
2018-05-13T09:36:47.850Z,20.83
2018-05-13T09:39:16.424Z,20.97
2018-05-13T09:41:45.025Z,20.95
2018-05-13T09:44:13.600Z,21.01
2018-05-13T09:46:42.191Z,20.59
2018-05-13T09:49:10.755Z,20.65
2018-05-13T09:51:39.358Z,20.59
2018-05-13T09:54:07.941Z,20.82
2018-05-13T09:56:36.513Z,20.79
2018-05-13T09:59:04.724Z,20.75
2018-05-13T10:01:33.295Z,20.84
2018-05-13T10:04:01.921Z,21.03
2018-05-13T10:06:30.668Z,21.32
2018-05-13T10:08:59.263Z,21.59
2018-05-13T10:11:27.831Z,21.63
2018-05-13T10:13:56.414Z,21.77
2018-05-13T10:16:24.984Z,21.61
2018-05-13T10:18:53.539Z,21.48
2018-05-13T10:21:22.119Z,21.59
2018-05-13T10:23:50.681Z,21.48
2018-05-13T10:26:19.262Z,21.31
2018-05-13T10:28:47.619Z,21.26
2018-05-13T10:31:16.264Z,21.40
2018-05-13T10:33:44.835Z,21.31
2018-05-13T10:36:14.338Z,21.49
2018-05-13T10:38:42.884Z,21.45
2018-05-13T10:41:11.450Z,21.47
2018-05-13T10:43:40.011Z,21.50
2018-05-13T10:46:08.583Z,21.60
2018-05-13T10:48:37.180Z,21.76
2018-05-13T10:51:05.729Z,22.04
2018-05-13T10:53:34.288Z,22.30
2018-05-13T10:56:02.876Z,22.38
2018-05-13T11:01:05.400Z,22.66
2018-05-13T11:03:33.970Z,22.71
2018-05-13T11:06:02.551Z,22.97
2018-05-13T11:08:31.124Z,23.12
2018-05-13T11:10:59.678Z,23.15
2018-05-13T11:13:28.072Z,23.26
2018-05-13T11:15:56.642Z,23.17
2018-05-13T11:18:25.234Z,23.06
2018-05-13T11:20:53.795Z,22.29
2018-05-13T11:23:23.256Z,21.90
2018-05-13T11:25:51.810Z,21.58
2018-05-13T11:28:20.982Z,21.38
2018-05-13T11:30:49.555Z,21.25
2018-05-13T11:33:18.125Z,21.11
2018-05-13T11:35:46.675Z,20.96
2018-05-13T11:38:15.232Z,20.74
2018-05-13T11:40:43.849Z,20.40
2018-05-13T11:43:12.399Z,20.25
2018-05-13T11:45:42.715Z,19.85
2018-05-13T11:48:11.361Z,19.17
2018-05-13T11:50:39.941Z,18.75
2018-05-13T11:53:08.523Z,18.62
2018-05-13T11:55:37.096Z,18.39
2018-05-13T11:58:05.698Z,17.88
2018-05-13T12:00:34.307Z,17.38
2018-05-13T12:03:04.531Z,17.21
2018-05-13T12:05:33.091Z,17.14
2018-05-13T12:08:01.687Z,16.80
2018-05-13T12:10:30.499Z,16.90
2018-05-13T12:12:59.169Z,17.10
2018-05-13T12:15:28.801Z,17.16
2018-05-13T12:17:58.212Z,17.34
2018-05-13T12:20:27.867Z,17.48
2018-05-13T12:22:56.472Z,17.56
2018-05-13T12:25:25.194Z,17.63
2018-05-13T12:27:54.181Z,17.63
2018-05-13T12:30:24.822Z,17.59
2018-05-13T12:32:53.565Z,17.77
2018-05-13T12:35:22.356Z,17.84
2018-05-13T12:37:51.429Z,18.21
2018-05-13T12:40:20.857Z,18.37
2018-05-13T12:42:50.337Z,18.64
2018-05-13T12:45:18.955Z,18.98
2018-05-13T12:47:47.716Z,19.16
2018-05-13T12:50:16.461Z,19.36
2018-05-13T12:52:45.091Z,19.42
2018-05-13T12:55:13.697Z,19.54
2018-05-13T12:57:42.321Z,19.83
2018-05-13T13:00:10.939Z,19.97
2018-05-13T13:02:39.492Z,20.29
2018-05-13T13:05:08.051Z,20.69
2018-05-13T13:07:54.190Z,20.67
2018-05-13T13:10:31.506Z,20.97
2018-05-13T13:13:00.800Z,21.14
2018-05-13T13:15:29.464Z,21.34
2018-05-13T13:17:58.019Z,21.35
2018-05-13T13:20:26.632Z,21.39
2018-05-13T13:22:54.959Z,21.37
2018-05-13T13:25:23.242Z,21.36
2018-05-13T13:27:51.795Z,20.95
2018-05-13T13:30:20.482Z,20.91
2018-05-13T13:32:48.933Z,20.99
2018-05-13T13:35:17.552Z,20.97
2018-05-13T13:37:51.585Z,20.99
2018-05-13T13:40:20.304Z,20.89
2018-05-13T13:42:48.942Z,20.80
2018-05-13T13:45:17.510Z,20.75
2018-05-13T13:47:46.156Z,20.68
2018-05-13T13:50:14.724Z,20.49
2018-05-13T13:52:43.315Z,20.33
2018-05-13T13:55:11.895Z,20.34
2018-05-13T13:57:40.452Z,20.51
2018-05-13T14:00:11.339Z,20.67
2018-05-13T14:02:39.957Z,20.81
2018-05-13T14:05:08.604Z,20.92
2018-05-13T14:07:37.174Z,21.07
2018-05-13T14:10:06.868Z,21.12
2018-05-13T14:12:35.685Z,21.03
2018-05-13T14:15:04.227Z,20.96
2018-05-13T14:17:32.788Z,20.97
2018-05-13T14:20:03.480Z,20.99
2018-05-13T14:22:32.174Z,20.94
2018-05-13T14:25:01.934Z,20.93
2018-05-13T14:27:30.519Z,20.91
2018-05-13T14:29:59.072Z,20.91
2018-05-13T14:32:27.737Z,20.90
2018-05-13T14:34:56.287Z,20.82
2018-05-13T14:37:31.362Z,20.84
2018-05-13T14:40:00.072Z,20.83
2018-05-13T14:42:33.098Z,20.87
2018-05-13T14:45:01.714Z,20.93
2018-05-13T14:47:33.860Z,21.04
2018-05-13T14:50:02.569Z,20.94
2018-05-13T14:52:31.115Z,20.92
2018-05-13T14:54:59.879Z,20.91
2018-05-13T14:57:28.444Z,20.89
2018-05-13T14:59:56.991Z,20.78
2018-05-13T15:02:25.752Z,20.70
2018-05-13T15:04:54.901Z,20.60
2018-05-13T15:07:30.913Z,20.54
2018-05-13T15:09:59.904Z,20.48
2018-05-13T15:12:29.480Z,20.50
2018-05-13T15:14:58.128Z,20.50
2018-05-13T15:17:26.694Z,20.34
2018-05-13T15:19:55.251Z,20.29
2018-05-13T15:22:30.211Z,20.40
2018-05-13T15:24:58.967Z,20.19
2018-05-13T15:27:29.881Z,20.08
2018-05-13T15:29:58.140Z,20.07
2018-05-13T15:32:26.699Z,19.96
2018-05-13T15:34:55.294Z,19.97
2018-05-13T15:37:23.858Z,20.02
2018-05-13T15:39:52.423Z,19.88
2018-05-13T15:42:21.025Z,19.88
2018-05-13T15:44:49.591Z,19.88
2018-05-13T15:47:18.143Z,19.82
2018-05-13T15:49:46.704Z,19.78
2018-05-13T15:52:15.323Z,19.68
2018-05-13T15:54:43.947Z,19.66
2018-05-13T15:57:12.512Z,19.53
2018-05-13T15:59:41.141Z,19.46
2018-05-13T16:02:09.726Z,19.37
2018-05-13T16:04:38.348Z,19.24
2018-05-13T16:07:06.960Z,19.05
2018-05-13T16:09:35.594Z,18.98
2018-05-13T16:12:03.855Z,18.92
2018-05-13T16:14:32.439Z,18.90
2018-05-13T16:17:01.405Z,18.85
2018-05-13T16:19:30.105Z,18.73
2018-05-13T16:21:58.671Z,18.65
2018-05-13T16:24:27.236Z,18.58
2018-05-13T16:26:55.497Z,18.31
2018-05-13T16:29:25.069Z,18.15
2018-05-13T16:31:53.662Z,18.20
2018-05-13T16:34:22.232Z,18.26
2018-05-13T16:36:50.799Z,18.23
2018-05-13T16:39:19.401Z,18.19
2018-05-13T16:41:48.008Z,18.24
2018-05-13T16:44:16.573Z,18.26
2018-05-13T16:46:45.137Z,18.24
2018-05-13T16:49:14.095Z,18.24
2018-05-13T16:51:42.655Z,18.22
2018-05-13T16:54:11.232Z,18.22
2018-05-13T16:59:23.753Z,18.21
2018-05-13T17:01:52.401Z,18.15
2018-05-13T17:04:20.980Z,18.15
2018-05-13T17:06:49.568Z,18.18
2018-05-13T17:09:17.887Z,18.23
2018-05-13T17:11:47.515Z,18.24
2018-05-13T17:14:16.195Z,18.25
2018-05-13T17:16:44.826Z,18.22
2018-05-13T17:19:13.555Z,18.22
2018-05-13T17:21:42.139Z,18.20
2018-05-13T17:24:10.733Z,18.22
2018-05-13T17:26:39.287Z,18.17
2018-05-13T17:29:07.895Z,18.13
2018-05-13T17:31:36.465Z,18.14
2018-05-13T17:34:05.095Z,18.11
2018-05-13T17:36:33.806Z,17.90
2018-05-13T17:39:02.370Z,17.76
2018-05-13T17:41:31.903Z,17.72
2018-05-13T17:44:00.469Z,17.77
2018-05-13T17:46:30.110Z,17.85
2018-05-13T17:48:58.703Z,17.92
2018-05-13T17:51:27.282Z,17.89
2018-05-13T17:53:55.883Z,17.79
2018-05-13T17:56:24.108Z,17.69
2018-05-13T17:58:52.729Z,17.64
2018-05-13T18:01:21.305Z,17.61
2018-05-13T18:03:49.868Z,17.46
2018-05-13T18:06:18.497Z,17.27
2018-05-13T18:08:47.092Z,17.06
2018-05-13T18:11:15.739Z,16.87
2018-05-13T18:13:44.755Z,16.79
2018-05-13T18:16:13.317Z,16.56
2018-05-13T18:18:42.079Z,16.45
2018-05-13T18:21:10.644Z,16.33
2018-05-13T18:23:39.210Z,16.10
2018-05-13T18:26:09.116Z,16.01
2018-05-13T18:28:37.685Z,15.82
2018-05-13T18:31:06.330Z,15.71
2018-05-13T18:33:35.032Z,15.66
2018-05-13T18:36:03.634Z,15.64
2018-05-13T18:38:32.251Z,15.65
2018-05-13T18:41:00.809Z,15.66
2018-05-13T18:43:29.418Z,15.71
2018-05-13T18:45:57.971Z,15.67
2018-05-13T18:48:26.203Z,15.73
2018-05-13T18:50:54.755Z,15.74
2018-05-13T18:53:23.330Z,15.83
2018-05-13T18:55:51.971Z,15.88
2018-05-13T18:58:20.530Z,15.92
2018-05-13T19:00:49.091Z,15.91
2018-05-13T19:03:17.653Z,15.96
2018-05-13T19:05:46.222Z,15.95
2018-05-13T19:08:14.791Z,15.89
2018-05-13T19:10:43.856Z,15.83
2018-05-13T19:13:12.458Z,15.85
2018-05-13T19:15:41.041Z,15.87
2018-05-13T19:18:09.607Z,16.00
2018-05-13T19:20:38.165Z,16.08
2018-05-13T19:23:06.754Z,16.08
2018-05-13T19:25:35.366Z,16.01
2018-05-13T19:28:04.848Z,16.03
2018-05-13T19:30:33.458Z,15.98
2018-05-13T19:33:02.122Z,16.02
2018-05-13T19:35:30.723Z,16.00
2018-05-13T19:37:59.522Z,16.04
2018-05-13T19:40:28.096Z,15.99
2018-05-13T19:42:56.683Z,15.97
2018-05-13T19:45:25.287Z,15.94
2018-05-13T19:47:53.860Z,15.93
2018-05-13T19:50:22.931Z,15.93
2018-05-13T19:52:51.530Z,15.87
2018-05-13T19:55:20.123Z,15.86
2018-05-13T19:57:48.685Z,15.84
2018-05-13T20:00:17.294Z,15.83
2018-05-13T20:02:45.896Z,15.83
2018-05-13T20:05:14.657Z,15.85
2018-05-13T20:07:44.105Z,15.89
2018-05-13T20:10:12.707Z,15.90
2018-05-13T20:12:41.297Z,15.94
2018-05-13T20:15:09.895Z,15.84
